Latest Coastal Weather Observations for Bundaberg

IDQ60701

Issued at 3:42 am EST Monday 20 November 2017 (issued every 10 minutes, with the page automatically refreshed every 10 minutes)

About coastal observations | Map of coastal stations | Coastal observations for QLD | Marine services | Other Formats
Station Details ID: 039128 Name: BUNDABERG AERO Lat: -24.91 Lon: 152.32 Height: 30.82 m
Data from the previous 72 hours. | See also: Recent months at Bundaberg
Date/Time
EST
Temp
°C
Wind Pressure Rain since
9am
mm
Weather Cloud Vis
km
Sea
Height
m
Swell
Dir  Spd
kts
Gust
kts
hPa Trend Height
m
Period
s
Dir
20/03:30am 17.1 S 6 9 1015.4 - 0.4 - Partly cloudy 10 - - - -
20/03:00am 17.5 S 6 9 1015.6 - 0.4 - Cloudy 10 - - - -
20/02:30am 17.7 S 6 10 1015.5 - 0.4 - Partly cloudy 10 - - - -
20/02:00am 17.7 S 6 8 1015.8 - 0.4 - - 10 - - - -
20/01:30am 17.7 S 7 9 1015.8 - 0.4 - Partly cloudy 10 - - - -
20/01:00am 17.7 S 5 7 1015.9 - 0.4 - Partly cloudy 10 - - - -
20/12:30am 18.0 S 5 7 1016.1 - 0.4 - Partly cloudy 10 - - - -
20/12:00am 18.2 SSE 5 7 1016.6 - 0.4 - Cloudy 10 - - - -
 
Date/Time
EST
Temp
°C
Wind Pressure Rain since
9am
mm
Weather Cloud Vis
km
Sea
Height
m
Swell
Dir  Spd
kts
Gust
kts
hPa Trend Height
m
Period
s
Dir
19/11:30pm 18.2 S 6 9 1016.5 - 0.4 - - 10 - - - -
19/11:00pm 18.4 S 6 8 1016.8 - 0.4 - Partly cloudy 10 - - - -
19/10:30pm 18.6 S 6 8 1017.3 - 0.4 - - 10 - - - -
19/10:00pm 18.7 S 6 7 1017.4 - 0.4 - - 10 - - - -
19/09:30pm 18.8 S 6 9 1017.5 - 0.4 - - 10 - - - -
19/09:00pm 19.1 SSE 8 11 1017.4 - 0.4 - Cloudy 10 - - - -
19/08:30pm 19.4 SSE 7 11 1017.6 - 0.4 - Partly cloudy 10 - - - -
19/08:00pm 19.4 SSE 7 9 1016.9 - 0.4 - Partly cloudy 10 - - - -
19/07:30pm 19.3 SSE 5 7 1016.7 - 0.4 - - 10 - - - -
19/07:00pm 19.4 SSE 5 7 1016.6 - 0.4 - - 10 - - - -
19/06:30pm 19.4 SSW 4 5 1016.3 - 0.4 - Partly cloudy 10 - - - -
19/06:00pm 19.5 SSW 5 7 1016.3 - 0.4 Showers Cloudy 10 - - - -
19/05:30pm 19.6 S 5 6 1015.8 - 0.4 - Partly cloudy 10 - - - -
19/05:00pm 20.1 E 7 8 1015.6 - 0.4 - Partly cloudy 10 - - - -
19/04:30pm 19.9 ESE 8 10 1015.4 - 0.2 - Partly cloudy 10 - - - -
19/04:00pm 20.1 ESE 10 13 1015.3 - 0.0 - Partly cloudy 10 - - - -
19/03:30pm 20.5 SE 14 17 1015.1 - 0.0 - Partly cloudy 10 - - - -
19/03:00pm 21.3 SE 15 21 1015.0 - 0.0 Rain Mostly cloudy 10 - - - -
19/02:53pm 22.2 SE 12 21 1014.9 - 0.0 - Partly cloudy 10 - - - -
19/02:30pm 22.7 SSE 8 11 1014.8 - 0.0 - Partly cloudy 10 - - - -
19/02:00pm 21.4 S 10 13 1015.3 - 0.0 - Partly cloudy 10 - - - -
19/01:30pm 25.4 ESE 14 19 1015.1 - 0.0 - Partly cloudy 10 - - - -
19/01:00pm 25.2 ESE 15 21 1015.3 - 0.0 - Partly cloudy 10 - - - -
19/12:30pm 25.9 ESE 15 19 1015.6 - 0.0 - - 10 - - - -
19/12:00pm 24.6 E 14 19 1015.9 - 0.0 - Mostly clear 10 - - - -
19/11:30am 25.6 E 12 17 1016.0 - 0.0 - Partly cloudy 10 - - - -
19/11:00am 24.4 E 13 18 1016.4 - 0.0 - Partly cloudy 10 - - - -
19/10:30am 25.3 E 13 17 1016.3 - 0.0 - - 10 - - - -
19/10:00am 25.2 SE 9 13 1016.3 - 0.0 - Partly cloudy 10 - - - -
19/09:30am 23.7 SSE 9 15 1016.4 - 0.0 - Partly cloudy 10 - - - -
19/09:00am 23.1 SSE 9 13 1016.5 - 21.8 - Cloudy 10 - - - -
19/08:30am 22.7 SSE 8 13 1016.2 - 21.8 - Partly cloudy 10 - - - -
19/08:00am 21.5 SE 9 12 1015.9 - 21.8 - - 10 - - - -
19/07:30am 20.0 SSE 9 12 1015.8 - 21.8 - - 10 - - - -
19/07:00am 18.9 SSE 8 10 1015.5 - 21.8 - - 10 - - - -
19/06:30am 18.0 S 7 10 1015.3 - 21.8 - - 10 - - - -
19/06:00am 16.9 S 6 8 1014.8 - 21.8 - - 10 - - - -
19/05:30am 16.0 SSE 6 8 1014.4 - 21.8 - - 10 - - - -
19/05:00am 15.6 SSE 5 8 1014.3 - 21.8 - - 10 - - - -
19/04:30am 15.6 S 5 7 1014.0 - 21.8 - - 10 - - - -
19/04:00am 15.9 SSE 6 7 1013.8 - 21.8 - - 10 - - - -
19/03:42am 16.1 S 5 7 1014.0 - 21.8 - Partly cloudy 10 - - - -
19/03:30am 16.2 S 6 7 1013.9 - 21.8 - Partly cloudy 10 - - - -
19/03:00am 16.6 S 7 9 1014.0 - 21.8 - Cloudy 10 - - - -
19/02:32am 16.6 SSW 7 9 1013.9 - 21.8 - Partly cloudy 10 - - - -
19/02:30am 16.6 S 7 9 1014.0 - 21.8 - Partly cloudy 10 - - - -
19/02:00am 16.6 S 5 7 1014.1 - 21.8 - Partly cloudy 10 - - - -
19/01:30am 16.8 S 5 7 1014.5 - 21.8 - Partly cloudy 10 - - - -
19/01:00am 17.0 S 6 8 1014.7 - 21.8 - Partly cloudy 10 - - - -
19/12:30am 17.2 SSE 6 9 1015.1 - 21.8 - Cloudy 10 - - - -
19/12:00am 17.0 S 5 7 1015.3 - 21.8 - Mostly cloudy 10 - - - -
 
Date/Time
EST
Temp
°C
Wind Pressure Rain since
9am
mm
Weather Cloud Vis
km
Sea
Height
m
Swell
Dir  Spd
kts
Gust
kts
hPa Trend Height
m
Period
s
Dir
18/11:30pm 17.0 SSE 5 6 1015.8 - 21.8 - Partly cloudy 10 - - - -
18/11:00pm 17.1 S 5 7 1016.3 - 21.8 - Partly cloudy 10 - - - -
18/10:30pm 17.2 S 4 5 1016.4 - 21.8 - Partly cloudy 10 - - - -
18/10:00pm 17.4 SSE 5 7 1016.3 - 21.8 - - 10 - - - -
18/09:30pm 17.7 SSE 8 11 1016.5 - 21.8 - Partly cloudy 10 - - - -
18/09:00pm 17.8 SSE 6 8 1016.6 - 21.8 - Cloudy 10 - - - -
18/08:30pm 18.0 SE 8 10 1016.5 - 21.8 - Partly cloudy 10 - - - -
18/08:24pm 18.0 SE 8 10 1016.4 - 21.8 - Partly cloudy 10 - - - -
18/08:00pm 18.0 SSE 8 12 1016.3 - 21.8 - Cloudy 10 - - - -
18/07:41pm 18.0 SSE 6 9 1016.4 - 21.8 - Partly cloudy 10 - - - -
18/07:30pm 18.1 SSE 7 9 1016.4 - 21.8 - Partly cloudy 10 - - - -
18/07:00pm 18.1 SSE 7 9 1016.2 - 21.6 - Partly cloudy 10 - - - -
18/06:30pm 18.4 SE 7 10 1015.8 - 21.6 - Partly cloudy 10 - - - -
18/06:00pm 18.4 SSE 5 7 1015.3 - 21.6 Drizzle Cloudy 10 - - - -
18/05:30pm 18.4 ESE 4 6 1015.0 - 21.6 - Partly cloudy 10 - - - -
18/05:00pm 17.9 SE 5 6 1014.6 - 21.4 - Partly cloudy 9 - - - -
18/04:43pm 17.7 ESE 5 7 1014.6 - 21.0 - Partly cloudy 8 - - - -
18/04:30pm 17.7 SE 7 10 1014.5 - 20.4 - Partly cloudy 5 - - - -
18/04:14pm 17.9 ESE 9 12 1014.4 - 17.8 - Partly cloudy 5 - - - -
18/04:09pm 18.0 ESE 9 12 1014.4 - 16.8 - Partly cloudy 7 - - - -
18/04:00pm 18.0 ESE 9 13 1014.4 - 15.8 - Partly cloudy 6 - - - -
18/03:39pm 18.5 SE 9 12 1014.3 - 13.2 - Partly cloudy 5 - - - -
18/03:33pm 18.4 ESE 6 10 1014.2 - 12.6 - Partly cloudy 6 - - - -
18/03:30pm 18.5 ESE 5 9 1014.2 - 12.2 - Partly cloudy 7 - - - -
18/03:00pm 17.8 E 8 12 1014.2 - 7.6 Rain Cloudy 4 - - - -
18/02:47pm 18.1 ENE 8 16 1014.3 - 4.2 - Partly cloudy 5 - - - -
18/02:30pm 19.1 SSW 4 5 1014.0 - 2.0 - Partly cloudy 7 - - - -
18/02:00pm 19.1 ENE 3 5 1014.0 - 0.8 - Partly cloudy 7 - - - -
18/01:30pm 19.7 NE 11 14 1014.3 - 0.2 - Cloudy 10 - - - -
18/01:00pm 21.1 NE 16 22 1014.3 - 0.2 - Partly cloudy 10 - - - -
18/12:30pm 23.1 E 15 19 1014.3 - 0.2 - Partly cloudy 10 - - - -
18/12:00pm 22.9 E 13 18 1014.8 - 0.2 Drizzle Cloudy 10 - - - -
18/11:30am 23.8 ENE 7 11 1014.8 - 0.2 - Partly cloudy 10 - - - -
18/11:00am 23.1 S 3 5 1014.8 - 0.2 - Partly cloudy 10 - - - -
18/10:30am 22.7 WSW 5 9 1015.5 - 0.2 - Partly cloudy 10 - - - -
18/10:00am 22.1 SSW 4 7 1015.7 - 0.2 - Partly cloudy 10 - - - -
18/09:30am 21.4 SW 5 6 1016.1 - 0.2 - Partly cloudy 10 - - - -
18/09:00am 20.5 SSW 5 6 1016.3 - 4.6 Showers Cloudy 10 - - - -
18/08:30am 20.0 SSW 5 8 1016.4 - 4.6 - Partly cloudy 10 - - - -
18/08:00am 19.4 SSW 7 9 1016.8 - 4.6 - Cloudy 10 - - - -
18/07:30am 19.3 SSW 7 10 1016.7 - 4.6 - Partly cloudy 10 - - - -
18/07:00am 19.0 SW 8 12 1016.6 - 4.6 - Partly cloudy 10 - - - -
18/06:30am 18.8 SSW 8 11 1016.6 - 4.6 - Partly cloudy 10 - - - -
18/06:04am 18.3 SW 8 10 1016.4 - 4.6 - Partly cloudy 10 - - - -
18/06:00am 18.0 SW 9 11 1016.3 - 4.6 Showers Mostly cloudy 10 - - - -
18/05:43am 18.2 SSE 7 9 1016.4 - 3.2 - Partly cloudy 4 - - - -
18/05:30am 18.8 SSW 6 8 1015.9 - 0.0 - Partly cloudy 10 - - - -
18/05:00am 18.4 SW 7 8 1015.5 - 0.0 - Partly cloudy 10 - - - -
18/04:30am 18.6 SSW 6 9 1015.2 - 0.0 - Partly cloudy 10 - - - -
18/04:00am 18.7 SSW 5 6 1014.7 - 0.0 - - 10 - - - -
18/03:30am 18.9 S 6 7 1014.2 - 0.0 - - 10 - - - -
18/03:00am 18.9 S 5 7 1014.2 - 0.0 - Cloudy 10 - - - -
18/02:30am 19.3 S 4 5 1014.1 - 0.0 - - 10 - - - -
18/02:00am 19.4 ESE 3 4 1014.3 - 0.0 - - 10 - - - -
18/01:30am 20.0 E 4 5 1014.6 - 0.0 - - 10 - - - -
18/01:00am 20.2 E 5 6 1014.9 - 0.0 - - 10 - - - -
18/12:30am 20.0 E 6 7 1015.2 - 0.0 - Partly cloudy 10 - - - -
18/12:00am 20.0 E 5 6 1015.7 - 0.0 - - 10 - - - -
 
Date/Time
EST
Temp
°C
Wind Pressure Rain since
9am
mm
Weather Cloud Vis
km
Sea
Height
m
Swell
Dir  Spd
kts
Gust
kts
hPa Trend Height
m
Period
s
Dir
17/11:30pm 20.4 E 5 7 1015.8 - 0.0 - - 10 - - - -
17/11:00pm 20.6 E 6 7 1016.1 - 0.0 - Partly cloudy 10 - - - -
17/10:30pm 20.4 E 6 7 1016.2 - 0.0 - - 10 - - - -
17/10:00pm 21.4 E 7 11 1016.4 - 0.0 - Partly cloudy 10 - - - -
17/09:30pm 22.1 E 7 9 1016.4 - 0.0 - Partly cloudy 10 - - - -
17/09:00pm 22.0 E 8 11 1016.2 - 0.0 - Partly cloudy 10 - - - -
17/08:30pm 22.4 ENE 9 11 1016.1 - 0.0 - Partly cloudy 10 - - - -
17/08:00pm 22.2 E 7 9 1015.8 - 0.0 - Partly cloudy 10 - - - -
17/07:30pm 22.3 ENE 7 9 1015.6 - 0.0 - Partly cloudy 10 - - - -
17/07:00pm 21.9 E 8 12 1015.2 - 0.0 - Partly cloudy 10 - - - -
17/06:30pm 22.3 ENE 9 12 1014.9 - 0.0 - Partly cloudy 10 - - - -
17/06:00pm 22.3 ENE 9 12 1014.7 - 0.0 Rain Partly cloudy 10 - - - -
17/05:30pm 22.1 E 6 8 1014.7 - 0.0 - Partly cloudy 10 - - - -
17/05:00pm 24.7 ENE 13 18 1014.4 - 0.0 - Partly cloudy 10 - - - -
17/04:30pm 24.9 ENE 12 15 1014.4 - 0.0 - Partly cloudy 10 - - - -
17/04:00pm 25.7 ENE 12 16 1014.6 - 0.0 - - 10 - - - -
17/03:30pm 26.9 ENE 13 18 1014.8 - 0.0 - Partly cloudy 10 - - - -
17/03:00pm 26.4 E 12 17 1015.2 - 0.0 - - 10 - - - -
17/02:30pm 26.2 E 13 16 1015.5 - 0.0 - - 10 - - - -
17/02:00pm 26.1 E 13 17 1015.7 - 0.0 - - 10 - - - -
17/01:30pm 26.5 E 11 15 1015.7 - 0.0 - - 10 - - - -
17/01:00pm 26.1 ENE 11 17 1016.2 - 0.0 - Partly cloudy 10 - - - -
17/12:30pm 26.2 ENE 12 18 1016.5 - 0.0 - Partly cloudy 10 - - - -
17/12:00pm 26.7 E 13 18 1016.6 - 0.0 - - 10 - - - -
17/11:30am 25.9 E 12 15 1017.1 - 0.0 - Partly cloudy 10 - - - -
17/11:00am 26.2 E 12 18 1017.3 - 0.0 - Partly cloudy 10 - - - -
17/10:30am 25.3 ESE 11 18 1017.6 - 0.0 - - 10 - - - -
17/10:00am 25.8 E 10 15 1017.7 - 0.0 - Partly cloudy 10 - - - -
17/09:30am 25.8 ESE 10 18 1017.4 - 0.0 - Partly cloudy 10 - - - -
17/09:00am 24.9 E 10 14 1017.5 - 0.0 - Partly cloudy 10 - - - -
17/08:30am 24.9 E 8 13 1017.3 - 0.0 - Partly cloudy 10 - - - -
17/08:00am 23.5 E 3 9 1017.2 - 0.0 - Partly cloudy 10 - - - -
17/07:30am 22.6 SE 5 7 1017.2 - 0.0 - Partly cloudy 10 - - - -
17/07:00am 21.7 S 5 7 1016.7 - 0.0 - - 10 - - - -
17/06:30am 19.7 S 5 7 1016.5 - 0.0 - - 10 - - - -
17/06:00am 18.1 SSE 6 8 1016.1 - 0.0 - - 10 - - - -
17/05:30am 17.3 S 7 8 1015.8 - 0.0 - - 10 - - - -
17/05:00am 16.5 S 4 5 1015.7 - 0.0 - - 10 - - - -
17/04:30am 16.6 S 5 7 1015.5 - 0.0 - - 10 - - - -
17/04:00am 16.6 S 4 5 1015.4 - 0.0 - - 10 - - - -

Other Formats:

Comma delimited format used in spreadsheet applications
http://www.bom.gov.au/fwo/IDQ60701/IDQ60701.94387.axf

JavaScript Object Notation format (JSON) in row-major order
http://www.bom.gov.au/fwo/IDQ60701/IDQ60701.94387.json